JAC weather

Jackson Hole Airport
Jackson, Wyoming, United States

Public forecast

Using degrees Fahrenheit for public forecast. Weather courtesy of forecast.io.

Current aviation weather report (METAR) for Jackson Hole Airport

Retrieved 2019/12/11 12:56 UTC (45 minutes ago):

KJAC 111256Z AUTO 03005KT 10SM SCT110 M12/M14 A3014 RMK AO2 SLP281 T11221139 FZRANO

Aviation forecast (TAF) for Jackson Hole Airport

Retrieved 2019/12/11 12:39 UTC (1 hour ago):

TAF KJAC 111135Z 1112/1212 VRB04KT P6SM FEW028 BKN060 FM111600 19007KT P6SM VCSH SCT025 BKN035 FM111800 19009KT 4SM -SN SCT018 OVC024 FM120200 19009KT P6SM VCSH OVC024 FM120800 19010KT 2SM -SN OVC013 AMD LTD TO CLD VIS AND WIND